createdAt,value
2023-11-01T00:04:58.664Z,44.9
2023-11-01T00:11:04.228Z,44.9
2023-11-01T00:17:09.826Z,44.9
2023-11-01T00:23:15.253Z,44.9
2023-11-01T00:29:20.641Z,45
2023-11-01T00:35:26.771Z,45.1
2023-11-01T00:41:32.954Z,45.2
2023-11-01T00:47:39.068Z,45.2
2023-11-01T00:53:44.886Z,45.2
2023-11-01T00:59:50.501Z,45.2
2023-11-01T01:05:56.238Z,45.1
2023-11-01T01:12:02.101Z,45.1
2023-11-01T01:18:08.470Z,45
2023-11-01T01:24:14.852Z,45
2023-11-01T01:30:20.248Z,45
2023-11-01T01:36:25.539Z,44.9
2023-11-01T01:42:31.108Z,44.9
2023-11-01T01:48:36.889Z,44.9
2023-11-01T01:54:42.868Z,44.8
2023-11-01T02:00:48.455Z,44.8
2023-11-01T02:06:54.092Z,44.7
2023-11-01T02:12:59.585Z,44.7
2023-11-01T02:19:05.586Z,44.6
2023-11-01T02:25:11.561Z,44.6
2023-11-01T02:31:17.348Z,44.6
2023-11-01T02:37:23.379Z,44.5
2023-11-01T02:43:28.323Z,44.5
2023-11-01T02:49:33.856Z,44.6
2023-11-01T02:55:40.029Z,44.8
2023-11-01T03:01:46.115Z,44.8
2023-11-01T03:07:52.220Z,44.9
2023-11-01T03:13:57.390Z,45
2023-11-01T03:20:02.973Z,44.8
2023-11-01T03:26:08.778Z,44.7
2023-11-01T03:32:14.335Z,44.7
2023-11-01T03:38:20.307Z,44.6
2023-11-01T03:44:26.066Z,44.5
2023-11-01T03:50:32.304Z,44.5
2023-11-01T03:56:38.154Z,44.5
2023-11-01T04:02:44.486Z,44.5
2023-11-01T04:08:49.679Z,44.4
2023-11-01T04:14:55.794Z,44.4
2023-11-01T04:21:02.381Z,44.2
2023-11-01T04:27:07.528Z,44.4
2023-11-01T04:33:13.800Z,44.3
2023-11-01T04:39:19.170Z,44.3
2023-11-01T04:45:24.671Z,44.3
2023-11-01T04:51:30.320Z,44.3
2023-11-01T04:57:36.227Z,44.3
2023-11-01T05:03:42.526Z,44.1
2023-11-01T05:09:49.012Z,43.9
2023-11-01T05:15:54.581Z,43.8
2023-11-01T05:22:00.368Z,43.8
2023-11-01T05:28:06.816Z,44
2023-11-01T05:34:12.787Z,44.1
2023-11-01T05:40:18.507Z,44
2023-11-01T05:46:24.419Z,44.1
2023-11-01T05:52:29.659Z,44
2023-11-01T05:58:35.526Z,43.8
2023-11-01T06:04:40.475Z,43.7
2023-11-01T06:10:46.023Z,43.8
2023-11-01T06:16:51.205Z,43.8
2023-11-01T06:22:56.903Z,43.7
2023-11-01T06:29:02.528Z,43.7
2023-11-01T06:35:08.074Z,43.7
2023-11-01T06:41:13.897Z,43.6
2023-11-01T06:47:19.428Z,43.6
2023-11-01T06:53:25.482Z,43.5
2023-11-01T06:59:31.189Z,43.5
2023-11-01T07:05:36.893Z,43.5
2023-11-01T07:11:42.569Z,43.5
2023-11-01T07:17:48.236Z,43.4
2023-11-01T07:23:54.155Z,43.4
2023-11-01T07:29:59.917Z,43.4
2023-11-01T07:36:05.660Z,43.4
2023-11-01T07:42:11.686Z,43.3
2023-11-01T07:48:17.289Z,43.3
2023-11-01T07:54:22.869Z,43.4
2023-11-01T08:00:28.196Z,43.8
2023-11-01T08:06:33.787Z,43.7
2023-11-01T08:12:39.071Z,43.6
2023-11-01T08:18:44.843Z,43.5
2023-11-01T08:24:50.244Z,43.5
2023-11-01T08:30:55.402Z,43.4
2023-11-01T08:37:00.965Z,43.2
2023-11-01T08:43:06.297Z,43.1
2023-11-01T08:49:21.527Z,43.1
2023-11-01T08:55:27.792Z,43.4
2023-11-01T09:01:37.410Z,43.2
2023-11-01T09:07:44.004Z,43.1
2023-11-01T09:13:50.185Z,43.1
2023-11-01T09:19:55.745Z,43.1
2023-11-01T09:26:01.531Z,43.1
2023-11-01T09:32:07.515Z,43.1
2023-11-01T09:38:13.384Z,43.1
2023-11-01T09:44:18.580Z,43.1
2023-11-01T09:50:24.862Z,43
2023-11-01T09:56:31.256Z,43
2023-11-01T10:02:37.886Z,43
2023-11-01T10:08:44.245Z,43
2023-11-01T10:14:50.641Z,43
2023-11-01T10:20:57.474Z,43.1
2023-11-01T10:27:04.101Z,43.3
2023-11-01T10:33:09.900Z,43.4
2023-11-01T10:39:15.440Z,43.4
2023-11-01T10:45:20.941Z,43.5
2023-11-01T10:51:26.796Z,43.3
2023-11-01T10:57:32.310Z,43.1
2023-11-01T11:03:38.769Z,43
2023-11-01T11:09:44.705Z,43
2023-11-01T11:15:51.146Z,43
2023-11-01T11:21:57.696Z,43
2023-11-01T11:28:02.632Z,43
2023-11-01T11:34:08.021Z,43
2023-11-01T11:40:13.604Z,43
2023-11-01T11:46:19.278Z,44.2
2023-11-01T11:52:24.797Z,43.1
2023-11-01T11:58:34.813Z,43.3
2023-11-01T12:04:43.764Z,44
2023-11-01T12:10:49.100Z,43.2
2023-11-01T12:16:55.116Z,41.5
2023-11-01T12:23:01.201Z,43.2
2023-11-01T12:29:06.633Z,41.1
2023-11-01T12:35:12.354Z,40.4
2023-11-01T12:41:18.582Z,39.9
2023-11-01T12:47:24.302Z,40
2023-11-01T12:53:30.309Z,41.6
2023-11-01T12:59:35.876Z,43.6
2023-11-01T13:05:41.731Z,44
2023-11-01T13:11:47.425Z,43.6
2023-11-01T13:17:53.710Z,44.2
2023-11-01T13:23:59.458Z,43.9
2023-11-01T13:30:05.114Z,43.5
2023-11-01T13:36:12.205Z,43.9
2023-11-01T13:42:20.821Z,43.9
2023-11-01T13:48:28.264Z,43.9
2023-11-01T13:54:34.835Z,43.8
2023-11-01T14:00:40.605Z,43.8
2023-11-01T14:06:47.003Z,43.9
2023-11-01T14:12:52.851Z,43.9
2023-11-01T14:18:58.366Z,43.9
2023-11-01T14:25:04.169Z,43.8
2023-11-01T14:31:09.904Z,43.9
2023-11-01T14:37:15.477Z,44.1
2023-11-01T14:43:20.914Z,44.1
2023-11-01T14:49:26.269Z,44.2
2023-11-01T14:55:31.914Z,44.4
2023-11-01T15:01:39.016Z,44
2023-11-01T15:07:44.979Z,44.2
2023-11-01T15:13:50.455Z,44.3
2023-11-01T15:19:56.143Z,44.2
2023-11-01T15:26:01.919Z,44.2
2023-11-01T15:32:07.117Z,44.2
2023-11-01T15:38:12.655Z,44.2
2023-11-01T15:44:18.285Z,44.1
2023-11-01T15:50:23.802Z,44
2023-11-01T15:56:29.671Z,44.1
2023-11-01T16:02:36.771Z,44.1
2023-11-01T16:08:42.640Z,44.8
2023-11-01T16:14:48.167Z,45.4
2023-11-01T16:20:54.010Z,46.8
2023-11-01T16:26:59.740Z,46.7
2023-11-01T16:33:06.230Z,45.7
2023-11-01T16:39:11.699Z,45.1
2023-11-01T16:45:16.947Z,45.2
2023-11-01T16:51:22.830Z,45.2
2023-11-01T16:57:28.584Z,45.4
2023-11-01T17:03:35.166Z,45.6
2023-11-01T17:09:41.232Z,45.7
2023-11-01T17:15:46.952Z,45.5
2023-11-01T17:21:52.404Z,45.5
2023-11-01T17:27:57.970Z,45.4
2023-11-01T17:34:03.120Z,45.3
2023-11-01T17:40:08.257Z,45.3
2023-11-01T17:46:13.807Z,45.2
2023-11-01T17:52:19.040Z,45.2
2023-11-01T17:58:29.649Z,45.2
2023-11-01T18:04:34.928Z,45.2
2023-11-01T18:10:40.635Z,45.1
2023-11-01T18:16:46.801Z,44.9
2023-11-01T18:22:52.451Z,44.8
2023-11-01T18:28:57.733Z,44.9
2023-11-01T18:35:04.867Z,44.8
2023-11-01T18:41:13.476Z,44.8
2023-11-01T18:47:21.019Z,44.7
2023-11-01T18:53:26.485Z,44.7
2023-11-01T18:59:32.316Z,44.6
2023-11-01T19:05:38.358Z,44.6
2023-11-01T19:11:43.657Z,44.8
2023-11-01T19:17:49.623Z,44.9
2023-11-01T19:23:55.236Z,45
2023-11-01T19:30:00.929Z,45
2023-11-01T19:36:18.684Z,45
2023-11-01T19:42:26.008Z,44.9
2023-11-01T19:48:34.475Z,44.8
2023-11-01T19:54:39.848Z,44.9
2023-11-01T20:00:45.688Z,44.6
2023-11-01T20:06:55.257Z,44.7
2023-11-01T20:13:04.142Z,44.6
2023-11-01T20:19:09.492Z,44.6
2023-11-01T20:25:14.522Z,44.5
2023-11-01T20:31:20.235Z,44.4
2023-11-01T20:37:26.414Z,44.4
2023-11-01T20:43:32.246Z,44.4
2023-11-01T20:49:38.450Z,44.4
2023-11-01T20:55:44.366Z,44.3
2023-11-01T21:01:50.144Z,44.3
2023-11-01T21:07:55.975Z,44.3
2023-11-01T21:14:01.192Z,44.3
2023-11-01T21:20:07.090Z,44.3
2023-11-01T21:26:12.490Z,44.4
2023-11-01T21:32:17.616Z,44.5
2023-11-01T21:38:23.028Z,44.5
2023-11-01T21:44:28.430Z,44.6
2023-11-01T21:50:33.694Z,44.7
2023-11-01T21:56:39.270Z,44.6
2023-11-01T22:02:44.745Z,44.6
2023-11-01T22:08:50.661Z,44.6
2023-11-01T22:14:56.410Z,44.5
2023-11-01T22:21:02.190Z,44.5
2023-11-01T22:27:07.887Z,44.4
2023-11-01T22:33:14.010Z,44.4
2023-11-01T22:39:19.598Z,44.3
2023-11-01T22:45:24.547Z,44.3
2023-11-01T22:51:29.845Z,44
2023-11-01T22:57:35.822Z,44.8
2023-11-01T23:03:42.167Z,43.9
2023-11-01T23:09:47.898Z,44.1
2023-11-01T23:15:53.195Z,44.1
2023-11-01T23:21:59.155Z,44
2023-11-01T23:28:04.516Z,44
2023-11-01T23:34:09.945Z,44.1
2023-11-01T23:40:15.717Z,44.1
2023-11-01T23:46:21.716Z,44.1
2023-11-01T23:52:26.838Z,44
2023-11-01T23:58:32.471Z,44.2
